createdAt,value
2023-05-14T00:01:55.027Z,17.90
2023-05-14T00:04:22.744Z,17.90
2023-05-14T00:06:49.797Z,17.90
2023-05-14T00:09:17.065Z,17.90
2023-05-14T00:11:44.142Z,17.80
2023-05-14T00:14:11.223Z,17.80
2023-05-14T00:16:38.317Z,17.70
2023-05-14T00:19:05.736Z,17.80
2023-05-14T00:21:32.878Z,17.90
2023-05-14T00:24:00.029Z,17.90
2023-05-14T00:26:27.143Z,17.90
2023-05-14T00:28:54.215Z,18.40
2023-05-14T00:31:21.360Z,17.90
2023-05-14T00:33:48.499Z,17.90
2023-05-14T00:36:15.616Z,18.00
2023-05-14T00:38:42.706Z,17.90
2023-05-14T00:41:09.771Z,17.90
2023-05-14T00:43:36.890Z,17.80
2023-05-14T00:46:04.129Z,17.80
2023-05-14T00:48:31.389Z,17.80
2023-05-14T00:50:58.570Z,17.80
2023-05-14T00:53:26.240Z,17.80
2023-05-14T00:55:53.361Z,17.80
2023-05-14T00:58:21.409Z,17.80
2023-05-14T01:00:48.598Z,17.80
2023-05-14T01:03:15.933Z,17.80
2023-05-14T01:06:09.650Z,17.80
2023-05-14T01:08:50.508Z,17.90
2023-05-14T01:11:39.981Z,17.90
2023-05-14T01:14:24.664Z,17.90
2023-05-14T01:16:58.270Z,17.90
2023-05-14T01:19:44.015Z,17.90
2023-05-14T01:22:11.701Z,17.90
2023-05-14T01:24:39.223Z,18.10
2023-05-14T01:27:14.778Z,17.90
2023-05-14T01:29:47.663Z,17.90
2023-05-14T01:32:17.397Z,18.00
2023-05-14T01:34:48.622Z,17.90
2023-05-14T01:37:16.114Z,17.50
2023-05-14T01:39:43.612Z,17.90
2023-05-14T01:42:11.486Z,17.90
2023-05-14T01:44:38.937Z,17.90
2023-05-14T01:47:06.075Z,17.90
2023-05-14T01:49:33.214Z,17.90
2023-05-14T01:52:00.314Z,17.90
2023-05-14T01:54:27.359Z,17.90
2023-05-14T01:56:54.470Z,17.90
2023-05-14T01:59:21.566Z,17.90
2023-05-14T02:01:48.697Z,17.90
2023-05-14T02:04:15.871Z,17.90
2023-05-14T02:06:42.993Z,17.90
2023-05-14T02:09:10.261Z,17.90
2023-05-14T02:11:37.345Z,18.00
2023-05-14T02:14:04.427Z,17.80
2023-05-14T02:16:31.661Z,17.70
2023-05-14T02:18:58.878Z,17.80
2023-05-14T02:21:25.971Z,18.00
2023-05-14T02:23:53.039Z,17.80
2023-05-14T02:26:21.363Z,17.80
2023-05-14T02:28:48.501Z,17.80
2023-05-14T02:31:17.604Z,17.90
2023-05-14T02:33:45.050Z,17.90
2023-05-14T02:36:12.205Z,18.10
2023-05-14T02:38:39.410Z,18.00
2023-05-14T02:41:06.712Z,17.90
2023-05-14T02:43:33.807Z,17.90
2023-05-14T02:46:00.868Z,18.00
2023-05-14T02:48:27.988Z,17.90
2023-05-14T02:50:55.095Z,18.00
2023-05-14T02:53:22.239Z,17.90
2023-05-14T02:55:49.354Z,17.90
2023-05-14T02:58:16.439Z,17.90
2023-05-14T03:00:43.550Z,17.80
2023-05-14T03:03:11.358Z,18.30
2023-05-14T03:05:38.836Z,17.70
2023-05-14T03:08:06.641Z,17.30
2023-05-14T03:10:33.792Z,17.80
2023-05-14T03:13:00.949Z,17.70
2023-05-14T03:15:28.133Z,17.80
2023-05-14T03:17:55.297Z,17.70
2023-05-14T03:20:24.732Z,17.70
2023-05-14T03:22:52.430Z,17.80
2023-05-14T03:25:19.600Z,17.80
2023-05-14T03:27:46.708Z,17.80
2023-05-14T03:30:13.978Z,17.90
2023-05-14T03:32:41.438Z,17.90
2023-05-14T03:35:08.869Z,17.90
2023-05-14T03:37:36.108Z,17.90
2023-05-14T03:40:03.434Z,17.90
2023-05-14T03:42:30.632Z,17.90
2023-05-14T03:44:57.699Z,17.70
2023-05-14T03:47:24.773Z,17.90
2023-05-14T03:49:51.848Z,17.90
2023-05-14T03:52:18.907Z,17.80
2023-05-14T03:54:46.055Z,17.90
2023-05-14T03:57:13.098Z,17.80
2023-05-14T03:59:40.186Z,18.40
2023-05-14T04:02:07.420Z,17.80
2023-05-14T04:04:34.659Z,17.80
2023-05-14T04:07:01.764Z,17.80
2023-05-14T04:09:28.813Z,17.40
2023-05-14T04:11:55.897Z,17.80
2023-05-14T04:14:22.971Z,17.80
2023-05-14T04:16:50.116Z,17.80
2023-05-14T04:19:17.326Z,17.80
2023-05-14T04:21:44.472Z,17.90
2023-05-14T04:24:11.512Z,17.80
2023-05-14T04:26:38.573Z,17.80
2023-05-14T04:29:05.679Z,17.90
2023-05-14T04:31:33.688Z,17.90
2023-05-14T04:34:00.801Z,17.90
2023-05-14T04:36:27.865Z,17.90
2023-05-14T04:38:54.925Z,17.50
2023-05-14T04:41:21.986Z,17.80
2023-05-14T04:43:50.389Z,17.90
2023-05-14T04:46:17.605Z,17.90
2023-05-14T04:48:44.730Z,17.90
2023-05-14T04:51:11.970Z,17.90
2023-05-14T04:53:39.037Z,17.90
2023-05-14T04:56:06.583Z,18.00
2023-05-14T04:58:35.038Z,17.90
2023-05-14T05:01:04.939Z,17.90
2023-05-14T05:03:32.342Z,18.20
2023-05-14T05:05:59.472Z,17.90
2023-05-14T05:08:26.634Z,17.80
2023-05-14T05:10:53.678Z,17.90
2023-05-14T05:13:20.759Z,17.90
2023-05-14T05:15:47.858Z,17.80
2023-05-14T05:18:14.927Z,17.80
2023-05-14T05:20:41.981Z,17.30
2023-05-14T05:23:09.078Z,17.80
2023-05-14T05:25:36.158Z,17.90
2023-05-14T05:28:03.246Z,17.80
2023-05-14T05:30:30.360Z,17.70
2023-05-14T05:32:57.647Z,17.80
2023-05-14T05:35:24.801Z,17.90
2023-05-14T05:37:51.853Z,17.90
2023-05-14T05:40:19.062Z,17.90
2023-05-14T05:42:46.121Z,17.80
2023-05-14T05:45:13.217Z,17.90
2023-05-14T05:47:40.818Z,17.90
2023-05-14T05:50:08.799Z,17.90
2023-05-14T05:52:35.963Z,17.90
2023-05-14T05:55:03.600Z,17.90
2023-05-14T05:57:30.714Z,17.90
2023-05-14T05:59:58.074Z,17.90
2023-05-14T06:02:25.609Z,17.90
2023-05-14T06:04:53.133Z,17.90
2023-05-14T06:07:20.317Z,17.80
2023-05-14T06:09:47.360Z,17.90
2023-05-14T06:12:14.404Z,17.90
2023-05-14T06:14:41.472Z,17.90
2023-05-14T06:17:08.659Z,17.90
2023-05-14T06:19:35.733Z,17.90
2023-05-14T06:22:02.962Z,17.80
2023-05-14T06:24:30.074Z,17.90
2023-05-14T06:26:57.182Z,17.80
2023-05-14T06:29:24.896Z,17.80
2023-05-14T06:31:52.049Z,17.80
2023-05-14T06:34:19.393Z,17.80
2023-05-14T06:36:46.429Z,17.90
2023-05-14T06:39:13.591Z,17.90
2023-05-14T06:41:40.628Z,17.90
2023-05-14T06:44:07.699Z,17.90
2023-05-14T06:46:34.920Z,17.90
2023-05-14T06:49:02.066Z,17.90
2023-05-14T06:51:29.238Z,17.90
2023-05-14T06:53:56.367Z,17.90
2023-05-14T06:56:23.452Z,17.60
2023-05-14T06:58:50.751Z,17.90
2023-05-14T07:01:17.870Z,17.90
2023-05-14T07:03:44.960Z,17.90
2023-05-14T07:06:13.539Z,17.90
2023-05-14T07:08:40.853Z,17.90
2023-05-14T07:11:07.921Z,17.80
2023-05-14T07:13:35.016Z,17.90
2023-05-14T07:16:02.079Z,17.90
2023-05-14T07:18:29.183Z,17.90
2023-05-14T07:20:56.268Z,17.90
2023-05-14T07:23:23.344Z,18.00
2023-05-14T07:25:50.425Z,17.90
2023-05-14T07:28:17.708Z,17.90
2023-05-14T07:30:44.766Z,17.90
2023-05-14T07:33:11.894Z,17.90
2023-05-14T07:35:39.081Z,17.50
2023-05-14T07:38:06.246Z,18.00
2023-05-14T07:40:33.490Z,18.00
2023-05-14T07:43:00.583Z,18.00
2023-05-14T07:45:27.748Z,18.00
2023-05-14T07:47:54.948Z,18.20
2023-05-14T07:50:23.322Z,17.90
2023-05-14T07:52:50.612Z,18.00
2023-05-14T07:55:17.824Z,18.00
2023-05-14T07:57:45.614Z,18.00
2023-05-14T08:00:13.348Z,18.00
2023-05-14T08:02:40.712Z,17.90
2023-05-14T08:05:08.956Z,17.90
2023-05-14T08:07:36.069Z,17.90
2023-05-14T08:10:03.285Z,17.90
2023-05-14T08:12:30.413Z,17.80
2023-05-14T08:14:57.480Z,17.90
2023-05-14T08:17:24.587Z,17.90
2023-05-14T08:19:53.605Z,18.00
2023-05-14T08:22:21.676Z,18.00
2023-05-14T08:24:48.797Z,18.00
2023-05-14T08:27:16.571Z,18.00
2023-05-14T08:29:43.624Z,18.00
2023-05-14T08:32:22.000Z,18.00
2023-05-14T08:34:50.675Z,18.30
2023-05-14T08:37:17.840Z,18.00
2023-05-14T08:39:44.896Z,18.00
2023-05-14T08:42:13.412Z,18.00
2023-05-14T08:44:53.122Z,18.00
2023-05-14T08:47:23.735Z,18.00
2023-05-14T08:50:04.892Z,18.00
2023-05-14T08:52:33.524Z,18.00
2023-05-14T08:55:04.204Z,18.00
2023-05-14T08:57:33.305Z,18.50
2023-05-14T09:00:00.843Z,17.60
2023-05-14T09:02:30.004Z,17.90
2023-05-14T09:04:59.387Z,17.60
2023-05-14T09:07:27.161Z,17.40
2023-05-14T09:09:54.925Z,17.40
2023-05-14T09:12:22.416Z,17.40
2023-05-14T09:14:50.870Z,17.50
2023-05-14T09:17:18.528Z,17.50
2023-05-14T09:19:52.736Z,17.50
2023-05-14T09:22:20.338Z,17.50
2023-05-14T09:25:03.260Z,17.40
2023-05-14T09:27:31.962Z,17.40
2023-05-14T09:30:05.842Z,17.40
2023-05-14T09:32:38.001Z,17.40
2023-05-14T09:35:17.817Z,17.70
2023-05-14T09:37:47.299Z,17.90
2023-05-14T09:40:15.065Z,17.60
2023-05-14T09:42:42.320Z,17.60
2023-05-14T09:45:10.610Z,17.70
2023-05-14T09:47:38.683Z,17.70
2023-05-14T09:50:07.189Z,17.70
2023-05-14T09:52:34.980Z,17.60
2023-05-14T09:55:02.473Z,17.50
2023-05-14T09:57:29.595Z,17.40
2023-05-14T09:59:56.690Z,17.40
2023-05-14T10:02:26.839Z,17.30
2023-05-14T10:04:54.681Z,17.40
2023-05-14T10:07:33.503Z,17.40
2023-05-14T10:10:03.487Z,17.50
2023-05-14T10:12:35.552Z,17.50
2023-05-14T10:15:09.752Z,17.50
2023-05-14T10:17:38.959Z,17.50
2023-05-14T10:20:09.198Z,17.50
2023-05-14T10:22:36.481Z,17.50
2023-05-14T10:25:04.341Z,17.50
2023-05-14T10:27:32.010Z,17.50
2023-05-14T10:29:59.153Z,17.50
2023-05-14T10:32:26.827Z,17.40
2023-05-14T10:34:54.100Z,17.50
2023-05-14T10:37:27.795Z,17.40
2023-05-14T10:39:59.418Z,17.50
2023-05-14T10:42:28.845Z,17.50
2023-05-14T10:45:08.182Z,17.40
2023-05-14T10:47:40.105Z,17.40
2023-05-14T10:50:09.082Z,17.40
2023-05-14T10:52:36.981Z,17.50
2023-05-14T10:55:12.563Z,17.60
2023-05-14T10:57:41.877Z,17.70
2023-05-14T11:00:10.671Z,17.70
2023-05-14T11:02:39.478Z,17.70
2023-05-14T11:05:10.940Z,17.80
2023-05-14T11:07:40.959Z,17.80
2023-05-14T11:10:09.179Z,17.80
2023-05-14T11:12:38.115Z,17.80
2023-05-14T11:15:09.297Z,17.80
2023-05-14T11:17:37.960Z,17.80
2023-05-14T11:20:06.533Z,17.80
2023-05-14T11:22:37.942Z,17.80
2023-05-14T11:25:06.219Z,17.80
2023-05-14T11:27:38.220Z,17.80
2023-05-14T11:30:06.588Z,17.80
2023-05-14T11:32:34.893Z,17.80
2023-05-14T11:35:02.255Z,17.80
2023-05-14T11:37:30.565Z,17.80
2023-05-14T11:40:00.901Z,17.80
2023-05-14T11:42:28.109Z,17.70
2023-05-14T11:44:55.368Z,17.80
2023-05-14T11:47:22.813Z,17.90
2023-05-14T11:49:49.960Z,17.80
2023-05-14T11:52:19.349Z,17.80
2023-05-14T11:54:47.413Z,17.50
2023-05-14T11:57:18.025Z,17.70
2023-05-14T11:59:45.557Z,17.80
2023-05-14T12:02:14.469Z,17.80
2023-05-14T12:04:49.343Z,17.80
2023-05-14T12:07:16.505Z,17.90
2023-05-14T12:09:51.382Z,17.90
2023-05-14T12:12:21.322Z,17.80
2023-05-14T12:14:49.688Z,17.90
2023-05-14T12:17:21.958Z,17.90
2023-05-14T12:19:50.903Z,18.00
2023-05-14T12:22:22.517Z,18.00
2023-05-14T12:24:54.746Z,18.00
2023-05-14T12:27:24.446Z,18.00
2023-05-14T12:30:19.067Z,18.00
2023-05-14T12:32:48.886Z,18.00
2023-05-14T12:35:16.227Z,18.00
2023-05-14T12:37:43.502Z,18.20
2023-05-14T12:40:11.497Z,18.20
2023-05-14T12:42:38.589Z,18.20
2023-05-14T12:45:08.371Z,18.30
2023-05-14T12:47:36.732Z,18.20
2023-05-14T12:50:04.288Z,18.20
2023-05-14T12:55:01.700Z,18.30
2023-05-14T12:57:30.151Z,18.30
2023-05-14T12:59:57.462Z,18.20
2023-05-14T13:02:24.536Z,18.20
2023-05-14T13:04:51.599Z,18.20
2023-05-14T13:07:18.806Z,18.20
2023-05-14T13:09:45.855Z,18.20
2023-05-14T13:12:12.909Z,18.20
2023-05-14T13:14:39.953Z,18.20
2023-05-14T13:17:08.150Z,18.10
2023-05-14T13:19:35.374Z,18.20
2023-05-14T13:22:02.458Z,17.80
2023-05-14T13:24:29.588Z,18.20
2023-05-14T13:26:56.666Z,18.30
2023-05-14T13:29:24.608Z,18.20
2023-05-14T13:31:52.867Z,18.10
2023-05-14T13:34:23.094Z,18.20
2023-05-14T13:36:50.648Z,18.30
2023-05-14T13:39:17.898Z,18.10
2023-05-14T13:41:45.507Z,18.10
2023-05-14T13:44:12.598Z,18.20
2023-05-14T13:46:39.696Z,18.20
2023-05-14T13:49:06.796Z,18.30
2023-05-14T13:51:33.907Z,18.20
2023-05-14T13:54:00.964Z,18.20
2023-05-14T13:56:28.042Z,18.30
2023-05-14T13:58:55.721Z,18.30
2023-05-14T14:01:23.290Z,18.20
2023-05-14T14:03:50.460Z,18.20
2023-05-14T14:06:17.574Z,18.30
2023-05-14T14:08:44.654Z,18.20
2023-05-14T14:11:13.469Z,18.20
2023-05-14T14:13:41.395Z,18.10
2023-05-14T14:16:08.892Z,18.30
2023-05-14T14:18:36.298Z,18.20
2023-05-14T14:21:03.541Z,18.10
2023-05-14T14:23:30.634Z,18.20
2023-05-14T14:25:57.984Z,18.20
2023-05-14T14:28:25.138Z,18.20
2023-05-14T14:30:52.237Z,18.20
2023-05-14T14:33:19.318Z,18.30
2023-05-14T14:35:46.387Z,18.30
2023-05-14T14:38:14.017Z,18.20
2023-05-14T14:40:41.214Z,18.30
2023-05-14T14:43:08.276Z,18.20
2023-05-14T14:45:35.532Z,18.30
2023-05-14T14:48:22.893Z,18.20
2023-05-14T14:50:50.276Z,18.30
2023-05-14T14:53:17.991Z,18.20
2023-05-14T14:55:45.049Z,18.30
2023-05-14T14:58:12.237Z,18.30
2023-05-14T15:00:40.187Z,18.20
2023-05-14T15:03:09.728Z,18.20
2023-05-14T15:05:36.881Z,18.20
2023-05-14T15:08:04.582Z,18.20
2023-05-14T15:10:32.022Z,18.20
2023-05-14T15:12:59.676Z,18.20
2023-05-14T15:15:26.931Z,18.20
2023-05-14T15:17:54.073Z,18.20
2023-05-14T15:20:21.161Z,18.20
2023-05-14T15:22:50.247Z,18.20
2023-05-14T15:25:17.401Z,18.20
2023-05-14T15:27:44.639Z,18.20
2023-05-14T15:30:12.376Z,18.20
2023-05-14T15:32:39.672Z,18.10
2023-05-14T15:35:07.492Z,18.20
2023-05-14T15:37:42.255Z,18.10
2023-05-14T15:40:10.865Z,18.10
2023-05-14T15:42:39.546Z,18.10
2023-05-14T15:45:07.001Z,18.10
2023-05-14T15:47:34.185Z,18.10
2023-05-14T15:50:01.337Z,18.10
2023-05-14T15:52:28.649Z,18.10
2023-05-14T15:54:57.222Z,18.10
2023-05-14T15:57:24.317Z,18.10
2023-05-14T15:59:51.540Z,18.10
2023-05-14T16:02:18.656Z,18.10
2023-05-14T16:04:45.695Z,17.50
2023-05-14T16:07:13.375Z,18.10
2023-05-14T16:09:40.557Z,18.10
2023-05-14T16:12:08.463Z,18.10
2023-05-14T16:14:35.871Z,18.10
2023-05-14T16:17:03.118Z,18.10
2023-05-14T16:19:30.401Z,18.10
2023-05-14T16:21:57.516Z,18.10
2023-05-14T16:24:24.610Z,17.90
2023-05-14T16:26:51.813Z,18.10
2023-05-14T16:29:19.084Z,18.10
2023-05-14T16:31:46.353Z,18.20
2023-05-14T16:34:13.708Z,18.20
2023-05-14T16:36:41.071Z,18.10
2023-05-14T16:39:08.677Z,18.10
2023-05-14T16:41:36.173Z,18.20
2023-05-14T16:44:03.948Z,18.20
2023-05-14T16:46:31.205Z,18.20
2023-05-14T16:48:58.385Z,18.20
2023-05-14T16:51:25.557Z,18.10
2023-05-14T16:53:54.045Z,18.20
2023-05-14T16:56:23.038Z,18.20
2023-05-14T16:58:50.300Z,17.70
2023-05-14T17:01:17.454Z,18.20
2023-05-14T17:03:45.548Z,18.10
2023-05-14T17:06:12.659Z,18.10
2023-05-14T17:08:39.745Z,18.10
2023-05-14T17:11:06.890Z,18.20
2023-05-14T17:13:34.120Z,18.10
2023-05-14T17:16:01.696Z,18.10
2023-05-14T17:18:28.953Z,17.40
2023-05-14T17:20:56.244Z,18.10
2023-05-14T17:23:23.391Z,18.00
2023-05-14T17:25:50.585Z,17.90
2023-05-14T17:28:17.678Z,17.80
2023-05-14T17:30:44.833Z,17.70
2023-05-14T17:33:11.992Z,17.70
2023-05-14T17:35:39.147Z,17.80
2023-05-14T17:38:06.603Z,17.80
2023-05-14T17:40:34.119Z,17.90
2023-05-14T17:43:01.326Z,17.90
2023-05-14T17:45:32.205Z,18.00
2023-05-14T17:48:03.896Z,18.50
2023-05-14T17:50:31.023Z,18.00
2023-05-14T17:52:58.134Z,18.00
2023-05-14T17:55:25.757Z,18.00
2023-05-14T17:57:52.986Z,18.00
2023-05-14T18:00:20.193Z,18.00
2023-05-14T18:02:47.406Z,18.00
2023-05-14T18:05:14.601Z,18.00
2023-05-14T18:07:41.802Z,18.50
2023-05-14T18:10:09.107Z,18.00
2023-05-14T18:12:36.214Z,18.00
2023-05-14T18:15:03.918Z,18.10
2023-05-14T18:17:30.989Z,18.00
2023-05-14T18:19:58.921Z,18.10
2023-05-14T18:22:26.003Z,18.10
2023-05-14T18:24:53.095Z,18.00
2023-05-14T18:27:20.215Z,18.00
2023-05-14T18:29:47.260Z,17.60
2023-05-14T18:32:14.317Z,18.00
2023-05-14T18:34:41.403Z,18.10
2023-05-14T18:37:08.890Z,18.00
2023-05-14T18:39:35.950Z,18.00
2023-05-14T18:42:03.137Z,18.00
2023-05-14T18:44:30.215Z,18.00
2023-05-14T18:46:59.315Z,18.00
2023-05-14T18:49:26.439Z,18.10
2023-05-14T18:51:53.516Z,18.00
2023-05-14T18:54:20.567Z,18.00
2023-05-14T18:56:47.807Z,18.30
2023-05-14T18:59:14.954Z,18.00
2023-05-14T19:01:42.063Z,17.90
2023-05-14T19:04:09.408Z,18.00
2023-05-14T19:06:36.887Z,18.00
2023-05-14T19:09:04.275Z,18.00
2023-05-14T19:11:31.591Z,18.00
2023-05-14T19:13:58.671Z,18.00
2023-05-14T19:16:26.483Z,18.00
2023-05-14T19:18:53.738Z,18.00
2023-05-14T19:21:20.803Z,18.00
2023-05-14T19:23:47.954Z,18.00
2023-05-14T19:26:15.782Z,18.00
2023-05-14T19:28:43.035Z,18.30
2023-05-14T19:31:10.928Z,18.00
2023-05-14T19:33:38.010Z,17.90
2023-05-14T19:36:05.369Z,17.90
2023-05-14T19:38:32.859Z,17.90
2023-05-14T19:40:59.953Z,17.90
2023-05-14T19:43:27.905Z,18.00
2023-05-14T19:45:55.052Z,17.90
2023-05-14T19:48:22.221Z,18.00
2023-05-14T19:50:49.310Z,18.00
2023-05-14T19:53:16.455Z,18.00
2023-05-14T19:55:43.600Z,18.00
2023-05-14T19:58:10.892Z,18.00
2023-05-14T20:00:37.978Z,18.00
2023-05-14T20:03:05.749Z,18.00
2023-05-14T20:05:34.217Z,18.00
2023-05-14T20:08:01.625Z,18.00
2023-05-14T20:10:30.465Z,18.00
2023-05-14T20:12:57.569Z,17.80
2023-05-14T20:15:24.669Z,18.00
2023-05-14T20:17:52.319Z,18.00
2023-05-14T20:20:19.374Z,18.00
2023-05-14T20:22:46.470Z,18.00
2023-05-14T20:25:13.633Z,18.00
2023-05-14T20:27:41.285Z,17.90
2023-05-14T20:30:08.805Z,17.90
2023-05-14T20:32:35.999Z,17.90
2023-05-14T20:35:03.582Z,17.90
2023-05-14T20:37:33.900Z,17.90
2023-05-14T20:40:02.234Z,17.90
2023-05-14T20:42:29.376Z,17.80
2023-05-14T20:44:56.820Z,17.90
2023-05-14T20:47:26.661Z,17.90
2023-05-14T20:49:53.875Z,17.90
2023-05-14T20:52:20.995Z,17.80
2023-05-14T20:54:48.914Z,17.90
2023-05-14T20:57:16.212Z,17.90
2023-05-14T20:59:43.535Z,17.90
2023-05-14T21:02:10.839Z,17.90
2023-05-14T21:04:38.413Z,17.90
2023-05-14T21:07:06.050Z,17.90
2023-05-14T21:09:33.170Z,17.90
2023-05-14T21:12:00.506Z,17.90
2023-05-14T21:14:27.600Z,17.90
2023-05-14T21:16:54.659Z,17.90
2023-05-14T21:19:23.178Z,17.80
2023-05-14T21:21:50.307Z,17.90
2023-05-14T21:24:17.479Z,17.90
2023-05-14T21:26:44.724Z,17.90
2023-05-14T21:29:11.822Z,17.90
2023-05-14T21:31:38.985Z,17.90
2023-05-14T21:34:06.131Z,17.90
2023-05-14T21:36:33.311Z,17.90
2023-05-14T21:39:00.382Z,17.90
2023-05-14T21:41:27.424Z,17.90
2023-05-14T21:43:54.500Z,17.90
2023-05-14T21:46:21.653Z,17.90
2023-05-14T21:48:48.801Z,18.10
2023-05-14T21:51:15.961Z,17.80
2023-05-14T21:53:43.229Z,18.00
2023-05-14T21:56:10.324Z,18.50
2023-05-14T21:58:37.511Z,18.00
2023-05-14T22:01:04.780Z,17.60
2023-05-14T22:03:31.895Z,17.90
2023-05-14T22:05:58.955Z,17.90
2023-05-14T22:08:27.118Z,17.90
2023-05-14T22:10:55.657Z,17.90
2023-05-14T22:13:22.817Z,17.90
2023-05-14T22:15:55.482Z,17.80
2023-05-14T22:18:28.418Z,17.30
2023-05-14T22:20:55.478Z,17.90
2023-05-14T22:23:22.546Z,17.90
2023-05-14T22:25:49.581Z,17.90
2023-05-14T22:28:16.648Z,17.90
2023-05-14T22:30:43.708Z,17.90
2023-05-14T22:33:10.942Z,18.00
2023-05-14T22:35:38.988Z,17.80
2023-05-14T22:38:06.036Z,17.90
2023-05-14T22:40:33.072Z,17.90
2023-05-14T22:43:00.219Z,17.90
2023-05-14T22:45:27.393Z,17.90
2023-05-14T22:47:54.568Z,17.90
2023-05-14T22:50:21.708Z,17.90
2023-05-14T22:52:48.755Z,17.90
2023-05-14T22:55:15.876Z,17.90
2023-05-14T22:57:43.499Z,17.90
2023-05-14T23:00:11.237Z,17.80
2023-05-14T23:02:39.259Z,17.70
2023-05-14T23:05:08.004Z,17.60
2023-05-14T23:07:35.477Z,17.50
2023-05-14T23:10:02.572Z,17.50
2023-05-14T23:12:29.663Z,17.60
2023-05-14T23:14:58.958Z,17.50
2023-05-14T23:17:26.367Z,17.60
2023-05-14T23:19:53.512Z,17.60
2023-05-14T23:22:20.726Z,17.70
2023-05-14T23:24:47.818Z,17.70
2023-05-14T23:27:14.900Z,17.80
2023-05-14T23:29:41.955Z,17.80
2023-05-14T23:32:09.221Z,17.80
2023-05-14T23:34:36.464Z,17.80
2023-05-14T23:37:03.587Z,17.80
2023-05-14T23:39:30.744Z,17.90
2023-05-14T23:41:57.820Z,17.90
2023-05-14T23:44:24.962Z,17.90
2023-05-14T23:46:52.211Z,17.90
2023-05-14T23:49:22.359Z,17.90
2023-05-14T23:51:49.487Z,17.90
2023-05-14T23:54:17.253Z,17.90
2023-05-14T23:56:44.528Z,17.90
2023-05-14T23:59:11.803Z,17.90
